sensor_id;sensor_type;location;lat;lon;timestamp;P1;durP1;ratioP1;P2;durP2;ratioP2
12356;SDS011;6243;51.244;6.774;2023-05-01T00:00:30;3.03;;;2.50;;
12356;SDS011;6243;51.244;6.774;2023-05-01T00:02:57;3.77;;;2.63;;
12356;SDS011;6243;51.244;6.774;2023-05-01T00:05:22;4.43;;;2.77;;
12356;SDS011;6243;51.244;6.774;2023-05-01T00:07:48;3.33;;;2.63;;
12356;SDS011;6243;51.244;6.774;2023-05-01T00:10:13;2.87;;;2.40;;
12356;SDS011;6243;51.244;6.774;2023-05-01T00:12:39;3.97;;;3.00;;
12356;SDS011;6243;51.244;6.774;2023-05-01T00:15:05;4.23;;;3.10;;
12356;SDS011;6243;51.244;6.774;2023-05-01T00:17:31;5.07;;;2.77;;
12356;SDS011;6243;51.244;6.774;2023-05-01T00:19:58;4.60;;;2.60;;
12356;SDS011;6243;51.244;6.774;2023-05-01T00:22:23;3.90;;;3.13;;
12356;SDS011;6243;51.244;6.774;2023-05-01T00:24:49;3.63;;;2.67;;
12356;SDS011;6243;51.244;6.774;2023-05-01T00:27:14;3.57;;;2.67;;
12356;SDS011;6243;51.244;6.774;2023-05-01T00:29:40;3.67;;;2.67;;
12356;SDS011;6243;51.244;6.774;2023-05-01T00:32:06;4.13;;;2.70;;
12356;SDS011;6243;51.244;6.774;2023-05-01T00:34:31;3.67;;;2.43;;
12356;SDS011;6243;51.244;6.774;2023-05-01T00:36:58;2.53;;;2.33;;
12356;SDS011;6243;51.244;6.774;2023-05-01T00:39:24;3.13;;;2.50;;
12356;SDS011;6243;51.244;6.774;2023-05-01T00:41:49;2.20;;;2.00;;
12356;SDS011;6243;51.244;6.774;2023-05-01T00:44:15;3.23;;;2.60;;
12356;SDS011;6243;51.244;6.774;2023-05-01T00:46:40;2.50;;;2.30;;
12356;SDS011;6243;51.244;6.774;2023-05-01T00:49:06;2.83;;;2.60;;
12356;SDS011;6243;51.244;6.774;2023-05-01T00:51:31;4.80;;;2.80;;
12356;SDS011;6243;51.244;6.774;2023-05-01T00:53:59;3.23;;;2.80;;
12356;SDS011;6243;51.244;6.774;2023-05-01T00:56:26;4.93;;;2.83;;
12356;SDS011;6243;51.244;6.774;2023-05-01T00:58:52;4.47;;;2.60;;
12356;SDS011;6243;51.244;6.774;2023-05-01T01:01:18;4.03;;;3.00;;
12356;SDS011;6243;51.244;6.774;2023-05-01T01:03:44;4.20;;;2.73;;
12356;SDS011;6243;51.244;6.774;2023-05-01T01:06:12;3.10;;;2.70;;
12356;SDS011;6243;51.244;6.774;2023-05-01T01:08:45;3.73;;;2.70;;
12356;SDS011;6243;51.244;6.774;2023-05-01T01:11:22;3.50;;;2.80;;
12356;SDS011;6243;51.244;6.774;2023-05-01T01:13:55;3.47;;;2.70;;
12356;SDS011;6243;51.244;6.774;2023-05-01T01:16:26;3.53;;;2.87;;
12356;SDS011;6243;51.244;6.774;2023-05-01T01:18:57;3.63;;;2.50;;
12356;SDS011;6243;51.244;6.774;2023-05-01T01:21:30;3.93;;;2.47;;
12356;SDS011;6243;51.244;6.774;2023-05-01T01:27:12;4.13;;;2.67;;
12356;SDS011;6243;51.244;6.774;2023-05-01T01:30:05;3.00;;;2.30;;
12356;SDS011;6243;51.244;6.774;2023-05-01T01:33:13;5.23;;;2.20;;
12356;SDS011;6243;51.244;6.774;2023-05-01T01:35:52;2.60;;;2.07;;
12356;SDS011;6243;51.244;6.774;2023-05-01T01:38:21;2.70;;;2.10;;
12356;SDS011;6243;51.244;6.774;2023-05-01T01:40:54;3.40;;;2.23;;
12356;SDS011;6243;51.244;6.774;2023-05-01T01:43:22;2.43;;;1.93;;
12356;SDS011;6243;51.244;6.774;2023-05-01T01:45:51;3.90;;;2.17;;
12356;SDS011;6243;51.244;6.774;2023-05-01T01:48:24;2.40;;;2.20;;
12356;SDS011;6243;51.244;6.774;2023-05-01T01:50:54;2.50;;;1.87;;
12356;SDS011;6243;51.244;6.774;2023-05-01T01:53:22;2.50;;;2.00;;
12356;SDS011;6243;51.244;6.774;2023-05-01T01:55:49;2.30;;;1.90;;
12356;SDS011;6243;51.244;6.774;2023-05-01T01:58:18;2.30;;;2.10;;
12356;SDS011;6243;51.244;6.774;2023-05-01T02:00:46;3.63;;;2.40;;
12356;SDS011;6243;51.244;6.774;2023-05-01T02:03:12;1.87;;;1.77;;
12356;SDS011;6243;51.244;6.774;2023-05-01T02:05:39;3.30;;;2.10;;
12356;SDS011;6243;51.244;6.774;2023-05-01T02:08:08;2.13;;;1.93;;
12356;SDS011;6243;51.244;6.774;2023-05-01T02:10:37;2.27;;;1.97;;
12356;SDS011;6243;51.244;6.774;2023-05-01T02:13:04;4.37;;;2.00;;
12356;SDS011;6243;51.244;6.774;2023-05-01T02:15:30;2.07;;;1.90;;
12356;SDS011;6243;51.244;6.774;2023-05-01T02:17:58;2.60;;;2.27;;
12356;SDS011;6243;51.244;6.774;2023-05-01T02:20:26;2.47;;;2.10;;
12356;SDS011;6243;51.244;6.774;2023-05-01T02:22:52;3.57;;;1.70;;
12356;SDS011;6243;51.244;6.774;2023-05-01T02:25:20;2.43;;;2.20;;
12356;SDS011;6243;51.244;6.774;2023-05-01T02:27:46;3.60;;;2.27;;
12356;SDS011;6243;51.244;6.774;2023-05-01T02:30:17;3.23;;;2.30;;
12356;SDS011;6243;51.244;6.774;2023-05-01T02:32:42;3.10;;;2.33;;
12356;SDS011;6243;51.244;6.774;2023-05-01T02:35:08;4.33;;;2.40;;
12356;SDS011;6243;51.244;6.774;2023-05-01T02:37:33;3.10;;;2.27;;
12356;SDS011;6243;51.244;6.774;2023-05-01T02:39:59;2.70;;;2.20;;
12356;SDS011;6243;51.244;6.774;2023-05-01T02:42:26;3.93;;;2.30;;
12356;SDS011;6243;51.244;6.774;2023-05-01T02:44:54;3.40;;;2.47;;
12356;SDS011;6243;51.244;6.774;2023-05-01T02:47:22;3.03;;;2.67;;
12356;SDS011;6243;51.244;6.774;2023-05-01T02:49:51;3.90;;;2.50;;
12356;SDS011;6243;51.244;6.774;2023-05-01T02:52:18;3.80;;;2.53;;
12356;SDS011;6243;51.244;6.774;2023-05-01T02:54:44;2.43;;;2.23;;
12356;SDS011;6243;51.244;6.774;2023-05-01T02:57:10;6.60;;;2.83;;
12356;SDS011;6243;51.244;6.774;2023-05-01T02:59:38;2.97;;;2.60;;
12356;SDS011;6243;51.244;6.774;2023-05-01T03:02:04;2.73;;;2.17;;
12356;SDS011;6243;51.244;6.774;2023-05-01T03:04:29;3.87;;;2.97;;
12356;SDS011;6243;51.244;6.774;2023-05-01T03:06:55;2.57;;;2.37;;
12356;SDS011;6243;51.244;6.774;2023-05-01T03:09:20;3.30;;;2.70;;
12356;SDS011;6243;51.244;6.774;2023-05-01T03:11:46;5.37;;;2.83;;
12356;SDS011;6243;51.244;6.774;2023-05-01T03:14:11;2.93;;;2.60;;
12356;SDS011;6243;51.244;6.774;2023-05-01T03:16:38;4.17;;;2.73;;
12356;SDS011;6243;51.244;6.774;2023-05-01T03:19:04;4.27;;;2.57;;
12356;SDS011;6243;51.244;6.774;2023-05-01T03:21:29;4.00;;;2.70;;
12356;SDS011;6243;51.244;6.774;2023-05-01T03:23:55;4.67;;;2.77;;
12356;SDS011;6243;51.244;6.774;2023-05-01T03:26:20;3.27;;;2.80;;
12356;SDS011;6243;51.244;6.774;2023-05-01T03:28:46;3.90;;;2.67;;
12356;SDS011;6243;51.244;6.774;2023-05-01T03:31:11;2.50;;;2.30;;
12356;SDS011;6243;51.244;6.774;2023-05-01T03:33:38;4.33;;;2.77;;
12356;SDS011;6243;51.244;6.774;2023-05-01T03:36:04;2.97;;;2.47;;
12356;SDS011;6243;51.244;6.774;2023-05-01T03:38:29;4.57;;;2.93;;
12356;SDS011;6243;51.244;6.774;2023-05-01T03:40:55;3.40;;;2.80;;
12356;SDS011;6243;51.244;6.774;2023-05-01T03:43:21;3.73;;;2.50;;
12356;SDS011;6243;51.244;6.774;2023-05-01T03:45:47;2.43;;;2.23;;
12356;SDS011;6243;51.244;6.774;2023-05-01T03:48:13;4.53;;;2.40;;
12356;SDS011;6243;51.244;6.774;2023-05-01T03:50:39;4.47;;;2.77;;
12356;SDS011;6243;51.244;6.774;2023-05-01T03:53:05;3.10;;;2.60;;
12356;SDS011;6243;51.244;6.774;2023-05-01T03:55:30;3.63;;;2.63;;
12356;SDS011;6243;51.244;6.774;2023-05-01T03:57:56;3.60;;;2.70;;
12356;SDS011;6243;51.244;6.774;2023-05-01T04:00:21;2.80;;;2.50;;
12356;SDS011;6243;51.244;6.774;2023-05-01T04:02:47;3.80;;;2.60;;
12356;SDS011;6243;51.244;6.774;2023-05-01T04:05:13;4.27;;;2.47;;
12356;SDS011;6243;51.244;6.774;2023-05-01T04:07:40;3.63;;;2.63;;
12356;SDS011;6243;51.244;6.774;2023-05-01T04:10:06;3.33;;;2.60;;
12356;SDS011;6243;51.244;6.774;2023-05-01T04:12:32;2.70;;;2.50;;
12356;SDS011;6243;51.244;6.774;2023-05-01T04:14:57;3.03;;;2.50;;
12356;SDS011;6243;51.244;6.774;2023-05-01T04:17:23;5.33;;;2.60;;
12356;SDS011;6243;51.244;6.774;2023-05-01T04:19:48;3.17;;;2.60;;
12356;SDS011;6243;51.244;6.774;2023-05-01T04:22:14;3.50;;;3.03;;
12356;SDS011;6243;51.244;6.774;2023-05-01T04:24:41;3.27;;;2.63;;
12356;SDS011;6243;51.244;6.774;2023-05-01T04:27:06;2.97;;;2.63;;
12356;SDS011;6243;51.244;6.774;2023-05-01T04:29:32;3.97;;;2.57;;
12356;SDS011;6243;51.244;6.774;2023-05-01T04:31:57;3.70;;;2.80;;
12356;SDS011;6243;51.244;6.774;2023-05-01T04:34:23;3.40;;;2.57;;
12356;SDS011;6243;51.244;6.774;2023-05-01T04:36:48;2.73;;;2.53;;
12356;SDS011;6243;51.244;6.774;2023-05-01T04:39:14;3.23;;;2.70;;
12356;SDS011;6243;51.244;6.774;2023-05-01T04:41:40;3.23;;;2.60;;
12356;SDS011;6243;51.244;6.774;2023-05-01T04:44:06;3.47;;;2.47;;
12356;SDS011;6243;51.244;6.774;2023-05-01T04:46:31;3.67;;;2.50;;
12356;SDS011;6243;51.244;6.774;2023-05-01T04:48:57;3.23;;;2.57;;
12356;SDS011;6243;51.244;6.774;2023-05-01T04:51:22;3.03;;;2.60;;
12356;SDS011;6243;51.244;6.774;2023-05-01T04:53:48;4.20;;;2.63;;
12356;SDS011;6243;51.244;6.774;2023-05-01T04:56:13;3.47;;;2.60;;
12356;SDS011;6243;51.244;6.774;2023-05-01T04:58:40;2.80;;;2.60;;
12356;SDS011;6243;51.244;6.774;2023-05-01T05:01:06;3.87;;;2.60;;
12356;SDS011;6243;51.244;6.774;2023-05-01T05:03:31;3.00;;;2.70;;
12356;SDS011;6243;51.244;6.774;2023-05-01T05:05:57;3.80;;;2.53;;
12356;SDS011;6243;51.244;6.774;2023-05-01T05:08:22;4.30;;;2.53;;
12356;SDS011;6243;51.244;6.774;2023-05-01T05:10:48;5.37;;;2.43;;
12356;SDS011;6243;51.244;6.774;2023-05-01T05:13:13;3.50;;;2.47;;
12356;SDS011;6243;51.244;6.774;2023-05-01T05:15:40;3.63;;;2.90;;
12356;SDS011;6243;51.244;6.774;2023-05-01T05:18:05;3.27;;;2.33;;
12356;SDS011;6243;51.244;6.774;2023-05-01T05:20:31;2.83;;;2.40;;
12356;SDS011;6243;51.244;6.774;2023-05-01T05:22:56;2.40;;;2.20;;
12356;SDS011;6243;51.244;6.774;2023-05-01T05:25:22;4.37;;;2.60;;
12356;SDS011;6243;51.244;6.774;2023-05-01T05:27:48;5.00;;;2.50;;
12356;SDS011;6243;51.244;6.774;2023-05-01T05:30:13;2.90;;;2.60;;
12356;SDS011;6243;51.244;6.774;2023-05-01T05:32:40;2.80;;;2.40;;
12356;SDS011;6243;51.244;6.774;2023-05-01T05:35:06;2.37;;;2.17;;
12356;SDS011;6243;51.244;6.774;2023-05-01T05:37:32;4.00;;;2.80;;
12356;SDS011;6243;51.244;6.774;2023-05-01T05:39:57;3.97;;;2.17;;
12356;SDS011;6243;51.244;6.774;2023-05-01T05:42:23;2.97;;;2.43;;
12356;SDS011;6243;51.244;6.774;2023-05-01T05:44:48;3.80;;;2.50;;
12356;SDS011;6243;51.244;6.774;2023-05-01T05:47:14;3.03;;;2.20;;
12356;SDS011;6243;51.244;6.774;2023-05-01T05:49:41;3.53;;;2.40;;
12356;SDS011;6243;51.244;6.774;2023-05-01T05:52:06;3.13;;;2.30;;
12356;SDS011;6243;51.244;6.774;2023-05-01T05:54:32;3.53;;;2.90;;
12356;SDS011;6243;51.244;6.774;2023-05-01T05:56:57;4.40;;;2.40;;
12356;SDS011;6243;51.244;6.774;2023-05-01T05:59:23;3.20;;;2.30;;
12356;SDS011;6243;51.244;6.774;2023-05-01T06:01:49;4.77;;;2.80;;
12356;SDS011;6243;51.244;6.774;2023-05-01T06:04:14;2.47;;;1.97;;
12356;SDS011;6243;51.244;6.774;2023-05-01T06:06:41;3.80;;;2.10;;
12356;SDS011;6243;51.244;6.774;2023-05-01T06:09:06;2.23;;;2.03;;
12356;SDS011;6243;51.244;6.774;2023-05-01T06:11:32;2.50;;;2.30;;
12356;SDS011;6243;51.244;6.774;2023-05-01T06:13:57;4.43;;;2.77;;
12356;SDS011;6243;51.244;6.774;2023-05-01T06:16:23;4.87;;;2.70;;
12356;SDS011;6243;51.244;6.774;2023-05-01T06:18:48;2.97;;;2.30;;
12356;SDS011;6243;51.244;6.774;2023-05-01T06:21:14;2.33;;;2.13;;
12356;SDS011;6243;51.244;6.774;2023-05-01T06:23:41;3.13;;;2.30;;
12356;SDS011;6243;51.244;6.774;2023-05-01T06:26:06;3.60;;;2.40;;
12356;SDS011;6243;51.244;6.774;2023-05-01T06:28:32;3.40;;;2.73;;
12356;SDS011;6243;51.244;6.774;2023-05-01T06:30:57;2.83;;;2.33;;
12356;SDS011;6243;51.244;6.774;2023-05-01T06:33:22;2.53;;;2.33;;
12356;SDS011;6243;51.244;6.774;2023-05-01T06:35:48;3.47;;;2.23;;
12356;SDS011;6243;51.244;6.774;2023-05-01T06:38:13;5.07;;;2.80;;
12356;SDS011;6243;51.244;6.774;2023-05-01T06:40:40;3.13;;;2.20;;
12356;SDS011;6243;51.244;6.774;2023-05-01T06:43:06;4.97;;;2.40;;
12356;SDS011;6243;51.244;6.774;2023-05-01T06:45:32;3.00;;;2.70;;
12356;SDS011;6243;51.244;6.774;2023-05-01T06:47:57;2.80;;;2.50;;
12356;SDS011;6243;51.244;6.774;2023-05-01T06:50:23;3.87;;;2.40;;
12356;SDS011;6243;51.244;6.774;2023-05-01T06:52:48;3.30;;;2.77;;
12356;SDS011;6243;51.244;6.774;2023-05-01T06:55:14;3.23;;;2.30;;
12356;SDS011;6243;51.244;6.774;2023-05-01T06:57:41;2.70;;;2.40;;
12356;SDS011;6243;51.244;6.774;2023-05-01T07:00:06;3.53;;;2.70;;
12356;SDS011;6243;51.244;6.774;2023-05-01T07:02:33;3.37;;;2.20;;
12356;SDS011;6243;51.244;6.774;2023-05-01T07:04:58;2.53;;;2.23;;
12356;SDS011;6243;51.244;6.774;2023-05-01T07:07:24;3.07;;;2.47;;
12356;SDS011;6243;51.244;6.774;2023-05-01T07:09:49;2.47;;;2.23;;
12356;SDS011;6243;51.244;6.774;2023-05-01T07:12:15;3.73;;;2.57;;
12356;SDS011;6243;51.244;6.774;2023-05-01T07:14:41;3.20;;;2.50;;
12356;SDS011;6243;51.244;6.774;2023-05-01T07:17:07;2.80;;;2.40;;
12356;SDS011;6243;51.244;6.774;2023-05-01T07:19:32;4.20;;;2.57;;
12356;SDS011;6243;51.244;6.774;2023-05-01T07:21:58;2.57;;;2.23;;
12356;SDS011;6243;51.244;6.774;2023-05-01T07:24:23;4.73;;;2.60;;
12356;SDS011;6243;51.244;6.774;2023-05-01T07:26:49;3.27;;;2.60;;
12356;SDS011;6243;51.244;6.774;2023-05-01T07:29:14;2.70;;;2.50;;
12356;SDS011;6243;51.244;6.774;2023-05-01T07:31:41;2.50;;;2.30;;
12356;SDS011;6243;51.244;6.774;2023-05-01T07:34:07;3.17;;;2.47;;
12356;SDS011;6243;51.244;6.774;2023-05-01T07:36:32;2.83;;;2.50;;
12356;SDS011;6243;51.244;6.774;2023-05-01T07:38:58;3.93;;;2.53;;
12356;SDS011;6243;51.244;6.774;2023-05-01T07:41:23;4.93;;;2.87;;
12356;SDS011;6243;51.244;6.774;2023-05-01T07:43:49;3.27;;;2.20;;
12356;SDS011;6243;51.244;6.774;2023-05-01T07:46:14;2.40;;;2.20;;
12356;SDS011;6243;51.244;6.774;2023-05-01T07:48:41;2.73;;;2.53;;
12356;SDS011;6243;51.244;6.774;2023-05-01T07:51:07;4.70;;;2.60;;
12356;SDS011;6243;51.244;6.774;2023-05-01T07:53:32;3.20;;;2.57;;
12356;SDS011;6243;51.244;6.774;2023-05-01T07:56:04;5.17;;;2.50;;
12356;SDS011;6243;51.244;6.774;2023-05-01T07:58:30;4.70;;;3.03;;
12356;SDS011;6243;51.244;6.774;2023-05-01T08:00:56;3.60;;;2.80;;
12356;SDS011;6243;51.244;6.774;2023-05-01T08:03:21;5.17;;;2.90;;
12356;SDS011;6243;51.244;6.774;2023-05-01T08:05:48;3.97;;;2.90;;
12356;SDS011;6243;51.244;6.774;2023-05-01T08:08:14;5.53;;;3.63;;
12356;SDS011;6243;51.244;6.774;2023-05-01T08:10:39;3.37;;;3.00;;
12356;SDS011;6243;51.244;6.774;2023-05-01T08:13:05;4.10;;;3.30;;
12356;SDS011;6243;51.244;6.774;2023-05-01T08:15:30;4.40;;;3.30;;
12356;SDS011;6243;51.244;6.774;2023-05-01T08:17:56;3.93;;;3.53;;
12356;SDS011;6243;51.244;6.774;2023-05-01T08:20:21;5.93;;;3.90;;
12356;SDS011;6243;51.244;6.774;2023-05-01T08:22:48;5.67;;;3.77;;
12356;SDS011;6243;51.244;6.774;2023-05-01T08:25:14;5.97;;;3.30;;
12356;SDS011;6243;51.244;6.774;2023-05-01T08:27:39;7.97;;;4.17;;
12356;SDS011;6243;51.244;6.774;2023-05-01T08:30:06;4.33;;;3.93;;
12356;SDS011;6243;51.244;6.774;2023-05-01T08:32:32;4.33;;;3.93;;
12356;SDS011;6243;51.244;6.774;2023-05-01T08:34:57;4.10;;;3.70;;
12356;SDS011;6243;51.244;6.774;2023-05-01T08:37:23;5.93;;;4.30;;
12356;SDS011;6243;51.244;6.774;2023-05-01T08:39:49;5.87;;;3.97;;
12356;SDS011;6243;51.244;6.774;2023-05-01T08:42:15;4.87;;;3.90;;
12356;SDS011;6243;51.244;6.774;2023-05-01T08:44:41;5.13;;;4.00;;
12356;SDS011;6243;51.244;6.774;2023-05-01T08:47:09;4.20;;;3.80;;
12356;SDS011;6243;51.244;6.774;2023-05-01T08:49:39;4.80;;;3.73;;
12356;SDS011;6243;51.244;6.774;2023-05-01T08:52:06;4.87;;;3.63;;
12356;SDS011;6243;51.244;6.774;2023-05-01T08:54:32;4.13;;;3.63;;
12356;SDS011;6243;51.244;6.774;2023-05-01T08:57:01;5.77;;;3.77;;
12356;SDS011;6243;51.244;6.774;2023-05-01T08:59:27;4.90;;;3.93;;
12356;SDS011;6243;51.244;6.774;2023-05-01T09:01:54;4.33;;;3.53;;
12356;SDS011;6243;51.244;6.774;2023-05-01T09:04:20;4.37;;;3.70;;
12356;SDS011;6243;51.244;6.774;2023-05-01T09:06:46;5.03;;;4.00;;
12356;SDS011;6243;51.244;6.774;2023-05-01T09:09:12;4.50;;;4.10;;
12356;SDS011;6243;51.244;6.774;2023-05-01T09:11:37;3.73;;;3.10;;
12356;SDS011;6243;51.244;6.774;2023-05-01T09:14:05;4.90;;;3.43;;
12356;SDS011;6243;51.244;6.774;2023-05-01T09:16:30;3.80;;;3.27;;
12356;SDS011;6243;51.244;6.774;2023-05-01T09:18:56;5.57;;;3.80;;
12356;SDS011;6243;51.244;6.774;2023-05-01T09:21:22;6.13;;;4.20;;
12356;SDS011;6243;51.244;6.774;2023-05-01T09:23:48;4.27;;;3.73;;
12356;SDS011;6243;51.244;6.774;2023-05-01T09:26:14;6.03;;;4.30;;
12356;SDS011;6243;51.244;6.774;2023-05-01T09:28:41;4.07;;;3.50;;
12356;SDS011;6243;51.244;6.774;2023-05-01T09:31:21;4.20;;;3.80;;
12356;SDS011;6243;51.244;6.774;2023-05-01T09:33:50;3.93;;;3.53;;
12356;SDS011;6243;51.244;6.774;2023-05-01T09:36:16;3.87;;;3.57;;
12356;SDS011;6243;51.244;6.774;2023-05-01T09:38:42;4.40;;;3.30;;
12356;SDS011;6243;51.244;6.774;2023-05-01T09:41:07;4.23;;;3.47;;
12356;SDS011;6243;51.244;6.774;2023-05-01T09:43:33;4.30;;;3.00;;
12356;SDS011;6243;51.244;6.774;2023-05-01T09:46:00;3.83;;;3.47;;
12356;SDS011;6243;51.244;6.774;2023-05-01T09:48:27;3.33;;;3.03;;
12356;SDS011;6243;51.244;6.774;2023-05-01T09:50:53;3.93;;;2.90;;
12356;SDS011;6243;51.244;6.774;2023-05-01T09:53:18;4.27;;;2.77;;
12356;SDS011;6243;51.244;6.774;2023-05-01T09:56:01;2.93;;;2.53;;
12356;SDS011;6243;51.244;6.774;2023-05-01T09:58:26;3.83;;;2.70;;
12356;SDS011;6243;51.244;6.774;2023-05-01T10:00:52;3.00;;;2.70;;
12356;SDS011;6243;51.244;6.774;2023-05-01T10:03:17;4.33;;;2.30;;
12356;SDS011;6243;51.244;6.774;2023-05-01T10:05:44;3.03;;;2.60;;
12356;SDS011;6243;51.244;6.774;2023-05-01T10:08:10;3.43;;;2.70;;
12356;SDS011;6243;51.244;6.774;2023-05-01T10:10:36;4.00;;;2.60;;
12356;SDS011;6243;51.244;6.774;2023-05-01T10:13:11;2.90;;;2.67;;
12356;SDS011;6243;51.244;6.774;2023-05-01T10:15:38;4.87;;;2.57;;
12356;SDS011;6243;51.244;6.774;2023-05-01T10:18:03;3.43;;;2.80;;
12356;SDS011;6243;51.244;6.774;2023-05-01T10:20:29;3.77;;;2.60;;
12356;SDS011;6243;51.244;6.774;2023-05-01T10:22:58;3.37;;;2.50;;
12356;SDS011;6243;51.244;6.774;2023-05-01T10:25:24;4.63;;;2.77;;
12356;SDS011;6243;51.244;6.774;2023-05-01T10:27:52;3.40;;;3.10;;
12356;SDS011;6243;51.244;6.774;2023-05-01T10:30:19;2.77;;;2.57;;
12356;SDS011;6243;51.244;6.774;2023-05-01T10:32:46;4.20;;;2.40;;
12356;SDS011;6243;51.244;6.774;2023-05-01T10:35:11;3.07;;;2.33;;
12356;SDS011;6243;51.244;6.774;2023-05-01T10:37:45;5.20;;;2.67;;
12356;SDS011;6243;51.244;6.774;2023-05-01T10:43:14;4.00;;;2.40;;
12356;SDS011;6243;51.244;6.774;2023-05-01T10:45:40;3.43;;;2.30;;
12356;SDS011;6243;51.244;6.774;2023-05-01T10:48:06;7.47;;;3.00;;
12356;SDS011;6243;51.244;6.774;2023-05-01T10:50:32;7.70;;;2.80;;
12356;SDS011;6243;51.244;6.774;2023-05-01T10:53:14;3.13;;;2.53;;
12356;SDS011;6243;51.244;6.774;2023-05-01T10:55:40;3.63;;;2.30;;
12356;SDS011;6243;51.244;6.774;2023-05-01T10:58:08;3.70;;;2.37;;
12356;SDS011;6243;51.244;6.774;2023-05-01T11:00:34;4.10;;;2.67;;
12356;SDS011;6243;51.244;6.774;2023-05-01T11:06:05;2.20;;;2.00;;
12356;SDS011;6243;51.244;6.774;2023-05-01T11:08:32;2.37;;;2.17;;
12356;SDS011;6243;51.244;6.774;2023-05-01T11:11:01;3.43;;;2.33;;
12356;SDS011;6243;51.244;6.774;2023-05-01T11:14:06;3.57;;;2.00;;
12356;SDS011;6243;51.244;6.774;2023-05-01T11:16:41;2.30;;;2.10;;
12356;SDS011;6243;51.244;6.774;2023-05-01T11:19:09;1.97;;;1.80;;
12356;SDS011;6243;51.244;6.774;2023-05-01T11:21:36;3.10;;;1.70;;
12356;SDS011;6243;51.244;6.774;2023-05-01T11:24:03;2.50;;;2.27;;
12356;SDS011;6243;51.244;6.774;2023-05-01T11:26:29;3.20;;;2.50;;
12356;SDS011;6243;51.244;6.774;2023-05-01T11:28:56;2.33;;;1.70;;
12356;SDS011;6243;51.244;6.774;2023-05-01T11:31:24;2.50;;;1.60;;
12356;SDS011;6243;51.244;6.774;2023-05-01T11:33:50;1.60;;;1.23;;
12356;SDS011;6243;51.244;6.774;2023-05-01T11:36:16;2.00;;;1.60;;
12356;SDS011;6243;51.244;6.774;2023-05-01T11:41:12;1.90;;;1.80;;
12356;SDS011;6243;51.244;6.774;2023-05-01T11:43:47;1.77;;;1.63;;
12356;SDS011;6243;51.244;6.774;2023-05-01T11:46:13;3.87;;;1.90;;
12356;SDS011;6243;51.244;6.774;2023-05-01T11:48:39;6.13;;;2.00;;
12356;SDS011;6243;51.244;6.774;2023-05-01T11:51:10;3.00;;;2.33;;
12356;SDS011;6243;51.244;6.774;2023-05-01T11:53:36;4.67;;;2.30;;
12356;SDS011;6243;51.244;6.774;2023-05-01T11:56:02;3.33;;;2.07;;
12356;SDS011;6243;51.244;6.774;2023-05-01T11:58:33;4.13;;;2.43;;
12356;SDS011;6243;51.244;6.774;2023-05-01T12:00:58;3.23;;;2.40;;
12356;SDS011;6243;51.244;6.774;2023-05-01T12:03:24;17.27;;;3.17;;
12356;SDS011;6243;51.244;6.774;2023-05-01T12:05:50;2.87;;;2.20;;
12356;SDS011;6243;51.244;6.774;2023-05-01T12:08:16;2.37;;;2.23;;
12356;SDS011;6243;51.244;6.774;2023-05-01T12:10:44;2.77;;;2.03;;
12356;SDS011;6243;51.244;6.774;2023-05-01T12:13:11;5.13;;;2.33;;
12356;SDS011;6243;51.244;6.774;2023-05-01T12:15:40;2.17;;;2.00;;
12356;SDS011;6243;51.244;6.774;2023-05-01T12:18:07;4.60;;;2.47;;
12356;SDS011;6243;51.244;6.774;2023-05-01T12:20:34;3.67;;;2.20;;
12356;SDS011;6243;51.244;6.774;2023-05-01T12:23:00;14.17;;;2.70;;
12356;SDS011;6243;51.244;6.774;2023-05-01T12:25:28;6.70;;;2.60;;
12356;SDS011;6243;51.244;6.774;2023-05-01T12:27:54;6.33;;;2.37;;
12356;SDS011;6243;51.244;6.774;2023-05-01T12:30:23;9.70;;;3.13;;
12356;SDS011;6243;51.244;6.774;2023-05-01T12:32:51;3.27;;;2.23;;
12356;SDS011;6243;51.244;6.774;2023-05-01T12:35:16;3.33;;;2.03;;
12356;SDS011;6243;51.244;6.774;2023-05-01T12:37:42;7.30;;;2.60;;
12356;SDS011;6243;51.244;6.774;2023-05-01T12:40:11;3.33;;;2.50;;
12356;SDS011;6243;51.244;6.774;2023-05-01T12:42:37;2.50;;;2.30;;
12356;SDS011;6243;51.244;6.774;2023-05-01T12:45:03;3.30;;;2.73;;
12356;SDS011;6243;51.244;6.774;2023-05-01T12:47:34;6.00;;;3.20;;
12356;SDS011;6243;51.244;6.774;2023-05-01T12:50:02;4.07;;;2.80;;
12356;SDS011;6243;51.244;6.774;2023-05-01T12:52:29;4.83;;;2.57;;
12356;SDS011;6243;51.244;6.774;2023-05-01T12:55:00;3.53;;;2.50;;
12356;SDS011;6243;51.244;6.774;2023-05-01T12:57:26;3.07;;;2.33;;
12356;SDS011;6243;51.244;6.774;2023-05-01T12:59:57;2.90;;;1.90;;
12356;SDS011;6243;51.244;6.774;2023-05-01T13:02:28;2.00;;;1.90;;
12356;SDS011;6243;51.244;6.774;2023-05-01T13:05:04;2.30;;;2.10;;
12356;SDS011;6243;51.244;6.774;2023-05-01T13:07:30;2.40;;;2.20;;
12356;SDS011;6243;51.244;6.774;2023-05-01T13:09:56;2.20;;;2.00;;
12356;SDS011;6243;51.244;6.774;2023-05-01T13:12:23;2.13;;;1.93;;
12356;SDS011;6243;51.244;6.774;2023-05-01T13:14:49;2.60;;;2.20;;
12356;SDS011;6243;51.244;6.774;2023-05-01T13:17:20;2.37;;;2.17;;
12356;SDS011;6243;51.244;6.774;2023-05-01T13:19:51;2.00;;;1.90;;
12356;SDS011;6243;51.244;6.774;2023-05-01T13:22:19;2.00;;;1.90;;
12356;SDS011;6243;51.244;6.774;2023-05-01T13:24:53;2.00;;;1.80;;
12356;SDS011;6243;51.244;6.774;2023-05-01T13:27:19;1.80;;;1.70;;
12356;SDS011;6243;51.244;6.774;2023-05-01T13:29:49;2.07;;;1.90;;
12356;SDS011;6243;51.244;6.774;2023-05-01T13:32:23;2.50;;;2.30;;
12356;SDS011;6243;51.244;6.774;2023-05-01T13:37:49;1.60;;;1.50;;
12356;SDS011;6243;51.244;6.774;2023-05-01T13:40:15;1.90;;;1.80;;
12356;SDS011;6243;51.244;6.774;2023-05-01T13:42:42;1.80;;;1.70;;
12356;SDS011;6243;51.244;6.774;2023-05-01T13:45:08;2.30;;;2.10;;
12356;SDS011;6243;51.244;6.774;2023-05-01T13:47:40;1.83;;;1.73;;
12356;SDS011;6243;51.244;6.774;2023-05-01T13:50:08;1.90;;;1.80;;
12356;SDS011;6243;51.244;6.774;2023-05-01T13:52:34;1.67;;;1.57;;
12356;SDS011;6243;51.244;6.774;2023-05-01T13:55:08;2.40;;;1.70;;
12356;SDS011;6243;51.244;6.774;2023-05-01T13:57:34;2.07;;;1.40;;
12356;SDS011;6243;51.244;6.774;2023-05-01T14:00:02;1.60;;;1.50;;
12356;SDS011;6243;51.244;6.774;2023-05-01T14:02:30;1.20;;;1.20;;
12356;SDS011;6243;51.244;6.774;2023-05-01T14:04:56;1.50;;;1.27;;
12356;SDS011;6243;51.244;6.774;2023-05-01T14:07:22;1.33;;;1.33;;
12356;SDS011;6243;51.244;6.774;2023-05-01T14:09:51;1.50;;;1.40;;
12356;SDS011;6243;51.244;6.774;2023-05-01T14:12:19;1.47;;;1.37;;
12356;SDS011;6243;51.244;6.774;2023-05-01T14:14:50;1.43;;;1.23;;
12356;SDS011;6243;51.244;6.774;2023-05-01T14:17:16;1.60;;;1.50;;
12356;SDS011;6243;51.244;6.774;2023-05-01T14:19:41;1.60;;;1.50;;
12356;SDS011;6243;51.244;6.774;2023-05-01T14:22:07;1.30;;;1.30;;
12356;SDS011;6243;51.244;6.774;2023-05-01T14:24:33;2.20;;;2.00;;
12356;SDS011;6243;51.244;6.774;2023-05-01T14:27:00;2.00;;;1.90;;
12356;SDS011;6243;51.244;6.774;2023-05-01T14:29:26;2.77;;;2.20;;
12356;SDS011;6243;51.244;6.774;2023-05-01T14:31:53;1.93;;;1.47;;
12356;SDS011;6243;51.244;6.774;2023-05-01T14:34:19;3.00;;;1.90;;
12356;SDS011;6243;51.244;6.774;2023-05-01T14:36:44;2.17;;;1.33;;
12356;SDS011;6243;51.244;6.774;2023-05-01T14:39:10;2.10;;;1.57;;
12356;SDS011;6243;51.244;6.774;2023-05-01T14:41:36;2.13;;;1.90;;
12356;SDS011;6243;51.244;6.774;2023-05-01T14:44:06;2.40;;;1.43;;
12356;SDS011;6243;51.244;6.774;2023-05-01T14:46:39;1.97;;;1.57;;
12356;SDS011;6243;51.244;6.774;2023-05-01T14:49:07;1.73;;;1.50;;
12356;SDS011;6243;51.244;6.774;2023-05-01T14:51:35;1.47;;;1.37;;
12356;SDS011;6243;51.244;6.774;2023-05-01T14:54:05;1.60;;;1.50;;
12356;SDS011;6243;51.244;6.774;2023-05-01T14:56:33;1.53;;;1.40;;
12356;SDS011;6243;51.244;6.774;2023-05-01T14:58:58;1.27;;;1.20;;
12356;SDS011;6243;51.244;6.774;2023-05-01T15:01:24;1.77;;;1.50;;
12356;SDS011;6243;51.244;6.774;2023-05-01T15:03:51;1.77;;;1.30;;
12356;SDS011;6243;51.244;6.774;2023-05-01T15:06:17;1.70;;;1.60;;
12356;SDS011;6243;51.244;6.774;2023-05-01T15:08:42;2.10;;;1.50;;
12356;SDS011;6243;51.244;6.774;2023-05-01T15:11:08;2.60;;;1.43;;
12356;SDS011;6243;51.244;6.774;2023-05-01T15:13:34;2.20;;;1.60;;